sensor_id;sensor_type;location;lat;lon;timestamp;temperature;humidity
72206;DHT22;60111;48.286;7.812;2023-04-24T00:01:24;11.70;75.00
72206;DHT22;60111;48.286;7.812;2023-04-24T00:03:57;11.70;75.30
72206;DHT22;60111;48.286;7.812;2023-04-24T00:06:30;11.70;75.50
72206;DHT22;60111;48.286;7.812;2023-04-24T00:09:06;11.70;75.20
72206;DHT22;60111;48.286;7.812;2023-04-24T00:11:40;11.70;74.90
72206;DHT22;60111;48.286;7.812;2023-04-24T00:14:13;11.70;75.00
72206;DHT22;60111;48.286;7.812;2023-04-24T00:16:45;11.70;75.10
72206;DHT22;60111;48.286;7.812;2023-04-24T00:19:18;11.70;75.70
72206;DHT22;60111;48.286;7.812;2023-04-24T00:21:52;11.60;76.20
72206;DHT22;60111;48.286;7.812;2023-04-24T00:24:25;11.70;76.10
72206;DHT22;60111;48.286;7.812;2023-04-24T00:26:58;11.70;75.60
72206;DHT22;60111;48.286;7.812;2023-04-24T00:29:32;11.70;76.30
72206;DHT22;60111;48.286;7.812;2023-04-24T00:32:04;11.70;76.10
72206;DHT22;60111;48.286;7.812;2023-04-24T00:34:38;11.70;76.20
72206;DHT22;60111;48.286;7.812;2023-04-24T00:37:11;11.70;76.40
72206;DHT22;60111;48.286;7.812;2023-04-24T00:39:44;11.70;76.60
72206;DHT22;60111;48.286;7.812;2023-04-24T00:42:16;11.60;76.70
72206;DHT22;60111;48.286;7.812;2023-04-24T00:44:49;11.70;76.10
72206;DHT22;60111;48.286;7.812;2023-04-24T00:47:22;11.80;75.80
72206;DHT22;60111;48.286;7.812;2023-04-24T00:49:55;11.80;75.80
72206;DHT22;60111;48.286;7.812;2023-04-24T00:52:27;11.80;76.00
72206;DHT22;60111;48.286;7.812;2023-04-24T00:55:02;11.70;76.00
72206;DHT22;60111;48.286;7.812;2023-04-24T00:57:34;11.70;76.50
72206;DHT22;60111;48.286;7.812;2023-04-24T01:00:07;11.70;76.30
72206;DHT22;60111;48.286;7.812;2023-04-24T01:02:44;11.70;76.30
72206;DHT22;60111;48.286;7.812;2023-04-24T01:05:18;11.70;76.20
72206;DHT22;60111;48.286;7.812;2023-04-24T01:07:51;11.70;76.40
72206;DHT22;60111;48.286;7.812;2023-04-24T01:10:24;11.70;77.10
72206;DHT22;60111;48.286;7.812;2023-04-24T01:12:58;11.60;77.10
72206;DHT22;60111;48.286;7.812;2023-04-24T01:15:31;11.60;77.00
72206;DHT22;60111;48.286;7.812;2023-04-24T01:18:04;11.60;77.10
72206;DHT22;60111;48.286;7.812;2023-04-24T01:20:39;11.60;77.80
72206;DHT22;60111;48.286;7.812;2023-04-24T01:23:12;11.60;77.40
72206;DHT22;60111;48.286;7.812;2023-04-24T01:25:44;11.70;78.10
72206;DHT22;60111;48.286;7.812;2023-04-24T01:28:17;11.50;79.00
72206;DHT22;60111;48.286;7.812;2023-04-24T01:30:50;11.50;79.60
72206;DHT22;60111;48.286;7.812;2023-04-24T01:33:23;11.60;78.50
72206;DHT22;60111;48.286;7.812;2023-04-24T01:35:56;11.60;77.90
72206;DHT22;60111;48.286;7.812;2023-04-24T01:38:28;11.60;78.20
72206;DHT22;60111;48.286;7.812;2023-04-24T01:41:01;11.50;78.60
72206;DHT22;60111;48.286;7.812;2023-04-24T01:43:34;11.50;78.40
72206;DHT22;60111;48.286;7.812;2023-04-24T01:46:07;11.50;78.50
72206;DHT22;60111;48.286;7.812;2023-04-24T01:48:40;11.50;78.40
72206;DHT22;60111;48.286;7.812;2023-04-24T01:51:12;11.50;78.70
72206;DHT22;60111;48.286;7.812;2023-04-24T01:53:47;11.40;78.60
72206;DHT22;60111;48.286;7.812;2023-04-24T01:56:22;11.50;78.30
72206;DHT22;60111;48.286;7.812;2023-04-24T01:58:55;11.50;78.10
72206;DHT22;60111;48.286;7.812;2023-04-24T02:01:35;11.40;78.60
72206;DHT22;60111;48.286;7.812;2023-04-24T02:04:08;11.40;78.50
72206;DHT22;60111;48.286;7.812;2023-04-24T02:06:41;11.30;79.50
72206;DHT22;60111;48.286;7.812;2023-04-24T02:09:13;11.40;78.30
72206;DHT22;60111;48.286;7.812;2023-04-24T02:11:46;11.40;78.60
72206;DHT22;60111;48.286;7.812;2023-04-24T02:14:18;11.50;78.10
72206;DHT22;60111;48.286;7.812;2023-04-24T02:16:51;11.40;77.90
72206;DHT22;60111;48.286;7.812;2023-04-24T02:19:24;11.40;78.40
72206;DHT22;60111;48.286;7.812;2023-04-24T02:21:57;11.30;78.70
72206;DHT22;60111;48.286;7.812;2023-04-24T02:24:29;11.20;78.70
72206;DHT22;60111;48.286;7.812;2023-04-24T02:27:02;11.20;78.80
72206;DHT22;60111;48.286;7.812;2023-04-24T02:29:35;11.20;78.80
72206;DHT22;60111;48.286;7.812;2023-04-24T02:32:07;11.20;78.70
72206;DHT22;60111;48.286;7.812;2023-04-24T02:34:41;11.30;78.90
72206;DHT22;60111;48.286;7.812;2023-04-24T02:37:15;11.20;78.30
72206;DHT22;60111;48.286;7.812;2023-04-24T02:39:47;11.30;78.80
72206;DHT22;60111;48.286;7.812;2023-04-24T02:42:20;11.20;79.50
72206;DHT22;60111;48.286;7.812;2023-04-24T02:44:52;11.20;78.80
72206;DHT22;60111;48.286;7.812;2023-04-24T02:47:25;11.20;79.00
72206;DHT22;60111;48.286;7.812;2023-04-24T02:49:57;11.20;80.00
72206;DHT22;60111;48.286;7.812;2023-04-24T02:52:30;11.20;79.50
72206;DHT22;60111;48.286;7.812;2023-04-24T02:55:02;11.20;79.80
72206;DHT22;60111;48.286;7.812;2023-04-24T02:57:35;11.10;80.80
72206;DHT22;60111;48.286;7.812;2023-04-24T03:00:09;11.20;80.60
72206;DHT22;60111;48.286;7.812;2023-04-24T03:02:42;11.30;80.40
72206;DHT22;60111;48.286;7.812;2023-04-24T03:05:15;11.30;81.10
72206;DHT22;60111;48.286;7.812;2023-04-24T03:07:49;11.20;81.90
72206;DHT22;60111;48.286;7.812;2023-04-24T03:10:24;11.10;82.60
72206;DHT22;60111;48.286;7.812;2023-04-24T03:12:56;11.00;82.10
72206;DHT22;60111;48.286;7.812;2023-04-24T03:15:30;11.00;83.00
72206;DHT22;60111;48.286;7.812;2023-04-24T03:18:03;10.90;83.70
72206;DHT22;60111;48.286;7.812;2023-04-24T03:20:35;10.90;84.10
72206;DHT22;60111;48.286;7.812;2023-04-24T03:23:08;10.90;84.30
72206;DHT22;60111;48.286;7.812;2023-04-24T03:25:41;10.90;83.90
72206;DHT22;60111;48.286;7.812;2023-04-24T03:28:14;10.90;83.40
72206;DHT22;60111;48.286;7.812;2023-04-24T03:30:47;10.90;84.10
72206;DHT22;60111;48.286;7.812;2023-04-24T03:33:20;10.90;84.10
72206;DHT22;60111;48.286;7.812;2023-04-24T03:35:56;10.90;83.70
72206;DHT22;60111;48.286;7.812;2023-04-24T03:38:28;10.90;82.70
72206;DHT22;60111;48.286;7.812;2023-04-24T03:41:01;10.90;81.80
72206;DHT22;60111;48.286;7.812;2023-04-24T03:43:33;11.10;81.30
72206;DHT22;60111;48.286;7.812;2023-04-24T03:46:06;11.00;81.50
72206;DHT22;60111;48.286;7.812;2023-04-24T03:48:40;10.90;81.70
72206;DHT22;60111;48.286;7.812;2023-04-24T03:51:13;11.00;81.30
72206;DHT22;60111;48.286;7.812;2023-04-24T03:53:46;11.00;80.80
72206;DHT22;60111;48.286;7.812;2023-04-24T03:56:18;10.90;81.60
72206;DHT22;60111;48.286;7.812;2023-04-24T03:58:52;10.80;81.90
72206;DHT22;60111;48.286;7.812;2023-04-24T04:01:25;10.80;82.10
72206;DHT22;60111;48.286;7.812;2023-04-24T04:03:58;10.80;81.70
72206;DHT22;60111;48.286;7.812;2023-04-24T04:06:31;10.70;81.60
72206;DHT22;60111;48.286;7.812;2023-04-24T04:09:03;10.60;82.20
72206;DHT22;60111;48.286;7.812;2023-04-24T04:11:37;10.60;81.80
72206;DHT22;60111;48.286;7.812;2023-04-24T04:14:10;10.60;81.70
72206;DHT22;60111;48.286;7.812;2023-04-24T04:16:43;10.50;81.30
72206;DHT22;60111;48.286;7.812;2023-04-24T04:19:16;10.50;81.00
72206;DHT22;60111;48.286;7.812;2023-04-24T04:21:48;10.40;81.80
72206;DHT22;60111;48.286;7.812;2023-04-24T04:24:25;10.40;82.20
72206;DHT22;60111;48.286;7.812;2023-04-24T04:26:57;10.40;81.90
72206;DHT22;60111;48.286;7.812;2023-04-24T04:29:31;10.30;81.60
72206;DHT22;60111;48.286;7.812;2023-04-24T04:32:04;10.20;82.20
72206;DHT22;60111;48.286;7.812;2023-04-24T04:34:37;10.40;81.60
72206;DHT22;60111;48.286;7.812;2023-04-24T04:37:11;10.30;81.60
72206;DHT22;60111;48.286;7.812;2023-04-24T04:39:44;10.30;80.90
72206;DHT22;60111;48.286;7.812;2023-04-24T04:42:16;10.20;81.20
72206;DHT22;60111;48.286;7.812;2023-04-24T04:44:50;10.20;81.20
72206;DHT22;60111;48.286;7.812;2023-04-24T04:47:23;10.20;80.50
72206;DHT22;60111;48.286;7.812;2023-04-24T04:49:56;10.30;79.10
72206;DHT22;60111;48.286;7.812;2023-04-24T04:52:28;10.20;80.20
72206;DHT22;60111;48.286;7.812;2023-04-24T04:55:01;10.20;80.50
72206;DHT22;60111;48.286;7.812;2023-04-24T04:57:34;10.30;79.90
72206;DHT22;60111;48.286;7.812;2023-04-24T05:00:07;10.40;80.40
72206;DHT22;60111;48.286;7.812;2023-04-24T05:02:41;10.40;79.80
72206;DHT22;60111;48.286;7.812;2023-04-24T05:05:14;10.30;79.90
72206;DHT22;60111;48.286;7.812;2023-04-24T05:07:48;10.20;79.70
72206;DHT22;60111;48.286;7.812;2023-04-24T05:10:21;10.20;80.40
72206;DHT22;60111;48.286;7.812;2023-04-24T05:12:53;10.20;80.60
72206;DHT22;60111;48.286;7.812;2023-04-24T05:15:26;10.40;80.30
72206;DHT22;60111;48.286;7.812;2023-04-24T05:17:58;10.50;80.10
72206;DHT22;60111;48.286;7.812;2023-04-24T05:20:31;10.50;80.00
72206;DHT22;60111;48.286;7.812;2023-04-24T05:23:04;10.50;79.50
72206;DHT22;60111;48.286;7.812;2023-04-24T05:25:36;10.50;79.50
72206;DHT22;60111;48.286;7.812;2023-04-24T05:28:11;10.50;79.20
72206;DHT22;60111;48.286;7.812;2023-04-24T05:30:43;10.50;78.70
72206;DHT22;60111;48.286;7.812;2023-04-24T05:33:17;10.30;78.30
72206;DHT22;60111;48.286;7.812;2023-04-24T05:35:50;10.30;78.00
72206;DHT22;60111;48.286;7.812;2023-04-24T05:38:22;10.30;78.30
72206;DHT22;60111;48.286;7.812;2023-04-24T05:40:55;10.30;78.40
72206;DHT22;60111;48.286;7.812;2023-04-24T05:43:28;10.40;79.10
72206;DHT22;60111;48.286;7.812;2023-04-24T05:46:00;10.40;79.60
72206;DHT22;60111;48.286;7.812;2023-04-24T05:48:33;10.50;79.90
72206;DHT22;60111;48.286;7.812;2023-04-24T05:51:05;10.60;80.00
72206;DHT22;60111;48.286;7.812;2023-04-24T05:53:38;10.60;79.50
72206;DHT22;60111;48.286;7.812;2023-04-24T05:56:10;10.70;78.40
72206;DHT22;60111;48.286;7.812;2023-04-24T05:58:43;10.60;77.90
72206;DHT22;60111;48.286;7.812;2023-04-24T06:01:17;10.50;78.60
72206;DHT22;60111;48.286;7.812;2023-04-24T06:03:51;10.50;78.20
72206;DHT22;60111;48.286;7.812;2023-04-24T06:06:25;10.40;78.50
72206;DHT22;60111;48.286;7.812;2023-04-24T06:08:58;10.50;78.20
72206;DHT22;60111;48.286;7.812;2023-04-24T06:11:31;10.50;78.30
72206;DHT22;60111;48.286;7.812;2023-04-24T06:14:03;10.50;77.40
72206;DHT22;60111;48.286;7.812;2023-04-24T06:16:36;10.50;77.50
72206;DHT22;60111;48.286;7.812;2023-04-24T06:19:10;10.40;78.10
72206;DHT22;60111;48.286;7.812;2023-04-24T06:21:42;10.50;77.80
72206;DHT22;60111;48.286;7.812;2023-04-24T06:24:15;10.50;77.60
72206;DHT22;60111;48.286;7.812;2023-04-24T06:26:48;10.50;77.90
72206;DHT22;60111;48.286;7.812;2023-04-24T06:29:21;10.50;77.80
72206;DHT22;60111;48.286;7.812;2023-04-24T06:31:53;10.50;77.60
72206;DHT22;60111;48.286;7.812;2023-04-24T06:34:26;10.60;76.60
72206;DHT22;60111;48.286;7.812;2023-04-24T06:36:59;10.80;77.30
72206;DHT22;60111;48.286;7.812;2023-04-24T06:39:31;10.90;76.00
72206;DHT22;60111;48.286;7.812;2023-04-24T06:42:04;11.00;76.00
72206;DHT22;60111;48.286;7.812;2023-04-24T06:44:37;11.30;74.90
72206;DHT22;60111;48.286;7.812;2023-04-24T06:47:11;11.40;74.20
72206;DHT22;60111;48.286;7.812;2023-04-24T06:49:45;11.50;73.20
72206;DHT22;60111;48.286;7.812;2023-04-24T06:52:17;11.60;73.80
72206;DHT22;60111;48.286;7.812;2023-04-24T06:54:50;11.80;72.20
72206;DHT22;60111;48.286;7.812;2023-04-24T06:57:23;11.90;70.80
72206;DHT22;60111;48.286;7.812;2023-04-24T06:59:56;12.00;71.90
72206;DHT22;60111;48.286;7.812;2023-04-24T07:02:30;12.70;70.60
72206;DHT22;60111;48.286;7.812;2023-04-24T07:05:04;14.70;65.20
72206;DHT22;60111;48.286;7.812;2023-04-24T07:07:36;17.10;57.60
72206;DHT22;60111;48.286;7.812;2023-04-24T07:10:09;19.30;52.00
72206;DHT22;60111;48.286;7.812;2023-04-24T07:12:42;21.20;46.80
72206;DHT22;60111;48.286;7.812;2023-04-24T07:15:14;21.90;43.90
72206;DHT22;60111;48.286;7.812;2023-04-24T07:17:47;22.70;42.70
72206;DHT22;60111;48.286;7.812;2023-04-24T07:20:20;24.20;40.70
72206;DHT22;60111;48.286;7.812;2023-04-24T07:22:53;24.20;40.40
72206;DHT22;60111;48.286;7.812;2023-04-24T07:25:25;22.80;41.80
72206;DHT22;60111;48.286;7.812;2023-04-24T07:27:59;20.70;44.90
72206;DHT22;60111;48.286;7.812;2023-04-24T07:30:32;18.30;46.80
72206;DHT22;60111;48.286;7.812;2023-04-24T07:33:04;16.40;51.40
72206;DHT22;60111;48.286;7.812;2023-04-24T07:35:38;15.30;53.80
72206;DHT22;60111;48.286;7.812;2023-04-24T07:38:11;14.70;56.30
72206;DHT22;60111;48.286;7.812;2023-04-24T07:40:43;14.10;54.70
72206;DHT22;60111;48.286;7.812;2023-04-24T07:43:16;13.50;55.60
72206;DHT22;60111;48.286;7.812;2023-04-24T07:45:49;13.20;56.50
72206;DHT22;60111;48.286;7.812;2023-04-24T07:48:21;12.80;57.50
72206;DHT22;60111;48.286;7.812;2023-04-24T07:50:54;12.60;58.00
72206;DHT22;60111;48.286;7.812;2023-04-24T07:53:28;12.40;60.10
72206;DHT22;60111;48.286;7.812;2023-04-24T07:56:01;12.40;61.50
72206;DHT22;60111;48.286;7.812;2023-04-24T07:58:33;12.40;61.60
72206;DHT22;60111;48.286;7.812;2023-04-24T08:01:07;12.40;60.70
72206;DHT22;60111;48.286;7.812;2023-04-24T08:03:41;12.50;60.30
72206;DHT22;60111;48.286;7.812;2023-04-24T08:06:13;12.90;58.70
72206;DHT22;60111;48.286;7.812;2023-04-24T08:08:46;13.30;56.90
72206;DHT22;60111;48.286;7.812;2023-04-24T08:11:19;13.20;56.20
72206;DHT22;60111;48.286;7.812;2023-04-24T08:13:52;13.10;55.80
72206;DHT22;60111;48.286;7.812;2023-04-24T08:16:26;12.80;57.40
72206;DHT22;60111;48.286;7.812;2023-04-24T08:18:59;12.70;56.70
72206;DHT22;60111;48.286;7.812;2023-04-24T08:21:31;12.50;57.00
72206;DHT22;60111;48.286;7.812;2023-04-24T08:24:04;12.50;55.70
72206;DHT22;60111;48.286;7.812;2023-04-24T08:26:39;13.60;53.80
72206;DHT22;60111;48.286;7.812;2023-04-24T08:29:11;14.60;49.70
72206;DHT22;60111;48.286;7.812;2023-04-24T08:31:44;14.40;48.80
72206;DHT22;60111;48.286;7.812;2023-04-24T08:34:16;14.20;48.50
72206;DHT22;60111;48.286;7.812;2023-04-24T08:36:49;13.70;48.10
72206;DHT22;60111;48.286;7.812;2023-04-24T08:39:22;13.50;49.30
72206;DHT22;60111;48.286;7.812;2023-04-24T08:41:56;13.30;50.80
72206;DHT22;60111;48.286;7.812;2023-04-24T08:44:34;13.60;49.00
72206;DHT22;60111;48.286;7.812;2023-04-24T08:47:08;14.80;47.10
72206;DHT22;60111;48.286;7.812;2023-04-24T08:49:41;16.70;41.70
72206;DHT22;60111;48.286;7.812;2023-04-24T08:52:16;18.10;39.60
72206;DHT22;60111;48.286;7.812;2023-04-24T08:54:48;19.80;36.50
72206;DHT22;60111;48.286;7.812;2023-04-24T08:57:21;20.10;34.80
72206;DHT22;60111;48.286;7.812;2023-04-24T08:59:55;19.90;36.60
72206;DHT22;60111;48.286;7.812;2023-04-24T09:02:28;18.70;37.40
72206;DHT22;60111;48.286;7.812;2023-04-24T09:05:03;17.10;39.20
72206;DHT22;60111;48.286;7.812;2023-04-24T09:07:38;16.10;42.00
72206;DHT22;60111;48.286;7.812;2023-04-24T09:10:12;15.30;42.60
72206;DHT22;60111;48.286;7.812;2023-04-24T09:12:45;14.60;43.60
72206;DHT22;60111;48.286;7.812;2023-04-24T09:15:19;14.00;45.90
72206;DHT22;60111;48.286;7.812;2023-04-24T09:17:54;13.60;47.30
72206;DHT22;60111;48.286;7.812;2023-04-24T09:20:29;13.20;48.60
72206;DHT22;60111;48.286;7.812;2023-04-24T09:23:01;13.10;48.80
72206;DHT22;60111;48.286;7.812;2023-04-24T09:25:35;13.00;50.20
72206;DHT22;60111;48.286;7.812;2023-04-24T09:28:08;12.90;50.30
72206;DHT22;60111;48.286;7.812;2023-04-24T09:30:41;12.80;50.40
72206;DHT22;60111;48.286;7.812;2023-04-24T09:33:14;12.90;50.00
72206;DHT22;60111;48.286;7.812;2023-04-24T09:35:51;13.00;50.60
72206;DHT22;60111;48.286;7.812;2023-04-24T09:38:37;13.00;48.70
72206;DHT22;60111;48.286;7.812;2023-04-24T09:41:13;12.90;49.20
72206;DHT22;60111;48.286;7.812;2023-04-24T09:43:45;12.90;49.40
72206;DHT22;60111;48.286;7.812;2023-04-24T09:46:18;12.70;50.40
72206;DHT22;60111;48.286;7.812;2023-04-24T09:48:52;12.50;51.00
72206;DHT22;60111;48.286;7.812;2023-04-24T09:51:36;12.40;51.00
72206;DHT22;60111;48.286;7.812;2023-04-24T09:54:19;12.10;51.30
72206;DHT22;60111;48.286;7.812;2023-04-24T09:56:52;12.10;51.70
72206;DHT22;60111;48.286;7.812;2023-04-24T09:59:26;12.10;53.00
72206;DHT22;60111;48.286;7.812;2023-04-24T10:01:59;12.20;51.80
72206;DHT22;60111;48.286;7.812;2023-04-24T10:04:32;12.10;52.50
72206;DHT22;60111;48.286;7.812;2023-04-24T10:07:04;12.10;53.20
72206;DHT22;60111;48.286;7.812;2023-04-24T10:09:38;12.20;52.60
72206;DHT22;60111;48.286;7.812;2023-04-24T10:12:11;12.20;52.90
72206;DHT22;60111;48.286;7.812;2023-04-24T10:14:45;12.30;52.80
72206;DHT22;60111;48.286;7.812;2023-04-24T10:17:20;12.30;52.70
72206;DHT22;60111;48.286;7.812;2023-04-24T10:19:53;12.40;53.00
72206;DHT22;60111;48.286;7.812;2023-04-24T10:22:27;12.20;53.60
72206;DHT22;60111;48.286;7.812;2023-04-24T10:25:03;12.10;54.60
72206;DHT22;60111;48.286;7.812;2023-04-24T10:27:38;12.00;56.60
72206;DHT22;60111;48.286;7.812;2023-04-24T10:30:12;12.00;56.90
72206;DHT22;60111;48.286;7.812;2023-04-24T10:32:44;12.00;57.30
72206;DHT22;60111;48.286;7.812;2023-04-24T10:35:18;11.90;57.50
72206;DHT22;60111;48.286;7.812;2023-04-24T10:37:56;12.00;58.70
72206;DHT22;60111;48.286;7.812;2023-04-24T10:40:35;12.00;58.70
72206;DHT22;60111;48.286;7.812;2023-04-24T10:43:08;12.10;58.90
72206;DHT22;60111;48.286;7.812;2023-04-24T10:46:01;12.20;60.10
72206;DHT22;60111;48.286;7.812;2023-04-24T10:48:34;12.20;60.10
72206;DHT22;60111;48.286;7.812;2023-04-24T10:51:11;12.10;59.50
72206;DHT22;60111;48.286;7.812;2023-04-24T10:53:42;12.10;58.90
72206;DHT22;60111;48.286;7.812;2023-04-24T10:56:16;12.10;58.50
72206;DHT22;60111;48.286;7.812;2023-04-24T10:58:53;12.20;58.30
72206;DHT22;60111;48.286;7.812;2023-04-24T11:01:28;12.10;58.80
72206;DHT22;60111;48.286;7.812;2023-04-24T11:04:03;12.20;58.30
72206;DHT22;60111;48.286;7.812;2023-04-24T11:06:36;12.20;58.10
72206;DHT22;60111;48.286;7.812;2023-04-24T11:09:10;12.30;58.50
72206;DHT22;60111;48.286;7.812;2023-04-24T11:11:47;12.40;57.50
72206;DHT22;60111;48.286;7.812;2023-04-24T11:14:19;12.40;57.80
72206;DHT22;60111;48.286;7.812;2023-04-24T11:16:54;12.50;57.10
72206;DHT22;60111;48.286;7.812;2023-04-24T11:19:27;12.30;56.30
72206;DHT22;60111;48.286;7.812;2023-04-24T11:22:03;12.20;55.90
72206;DHT22;60111;48.286;7.812;2023-04-24T11:24:38;12.10;54.80
72206;DHT22;60111;48.286;7.812;2023-04-24T11:27:14;12.00;54.30
72206;DHT22;60111;48.286;7.812;2023-04-24T11:29:59;12.00;54.50
72206;DHT22;60111;48.286;7.812;2023-04-24T11:32:37;11.90;54.80
72206;DHT22;60111;48.286;7.812;2023-04-24T11:35:18;11.90;54.30
72206;DHT22;60111;48.286;7.812;2023-04-24T11:37:52;12.00;53.90
72206;DHT22;60111;48.286;7.812;2023-04-24T11:40:26;12.00;54.00
72206;DHT22;60111;48.286;7.812;2023-04-24T11:43:00;12.00;54.40
72206;DHT22;60111;48.286;7.812;2023-04-24T11:45:33;12.00;53.90
72206;DHT22;60111;48.286;7.812;2023-04-24T11:48:05;12.00;53.50
72206;DHT22;60111;48.286;7.812;2023-04-24T11:50:38;12.10;52.90
72206;DHT22;60111;48.286;7.812;2023-04-24T11:53:10;12.10;53.40
72206;DHT22;60111;48.286;7.812;2023-04-24T11:55:44;12.30;52.50
72206;DHT22;60111;48.286;7.812;2023-04-24T11:58:20;12.70;52.10
72206;DHT22;60111;48.286;7.812;2023-04-24T12:00:58;13.00;51.70
72206;DHT22;60111;48.286;7.812;2023-04-24T12:03:32;13.30;51.80
72206;DHT22;60111;48.286;7.812;2023-04-24T12:06:10;13.50;50.60
72206;DHT22;60111;48.286;7.812;2023-04-24T12:08:47;13.50;49.60
72206;DHT22;60111;48.286;7.812;2023-04-24T12:11:20;13.60;49.70
72206;DHT22;60111;48.286;7.812;2023-04-24T12:13:52;13.60;49.00
72206;DHT22;60111;48.286;7.812;2023-04-24T12:16:26;13.70;49.70
72206;DHT22;60111;48.286;7.812;2023-04-24T12:18:59;13.80;49.10
72206;DHT22;60111;48.286;7.812;2023-04-24T12:21:32;13.90;48.30
72206;DHT22;60111;48.286;7.812;2023-04-24T12:24:06;13.90;48.20
72206;DHT22;60111;48.286;7.812;2023-04-24T12:26:41;14.10;49.40
72206;DHT22;60111;48.286;7.812;2023-04-24T12:29:19;14.00;47.90
72206;DHT22;60111;48.286;7.812;2023-04-24T12:31:48;13.90;48.00
72206;DHT22;60111;48.286;7.812;2023-04-24T12:34:22;13.80;47.50
72206;DHT22;60111;48.286;7.812;2023-04-24T12:36:55;13.80;47.70
72206;DHT22;60111;48.286;7.812;2023-04-24T12:39:27;13.90;47.40
72206;DHT22;60111;48.286;7.812;2023-04-24T12:42:00;13.70;48.30
72206;DHT22;60111;48.286;7.812;2023-04-24T12:44:34;13.60;48.90
72206;DHT22;60111;48.286;7.812;2023-04-24T12:47:08;13.60;50.00
72206;DHT22;60111;48.286;7.812;2023-04-24T12:49:41;13.60;50.30
72206;DHT22;60111;48.286;7.812;2023-04-24T12:52:14;13.50;51.00
72206;DHT22;60111;48.286;7.812;2023-04-24T12:54:48;13.40;51.20
72206;DHT22;60111;48.286;7.812;2023-04-24T12:57:21;13.20;52.20
72206;DHT22;60111;48.286;7.812;2023-04-24T12:59:55;13.10;52.80
72206;DHT22;60111;48.286;7.812;2023-04-24T13:02:29;13.20;52.30
72206;DHT22;60111;48.286;7.812;2023-04-24T13:05:02;13.40;52.20
72206;DHT22;60111;48.286;7.812;2023-04-24T13:07:35;13.50;51.60
72206;DHT22;60111;48.286;7.812;2023-04-24T13:10:08;13.70;52.10
72206;DHT22;60111;48.286;7.812;2023-04-24T13:12:41;13.80;51.90
72206;DHT22;60111;48.286;7.812;2023-04-24T13:15:15;13.90;51.10
72206;DHT22;60111;48.286;7.812;2023-04-24T13:17:50;14.10;50.40
72206;DHT22;60111;48.286;7.812;2023-04-24T13:20:22;14.10;50.20
72206;DHT22;60111;48.286;7.812;2023-04-24T13:22:54;14.20;49.00
72206;DHT22;60111;48.286;7.812;2023-04-24T13:25:27;14.10;49.10
72206;DHT22;60111;48.286;7.812;2023-04-24T13:28:00;14.00;49.60
72206;DHT22;60111;48.286;7.812;2023-04-24T13:30:33;14.10;49.40
72206;DHT22;60111;48.286;7.812;2023-04-24T13:33:05;14.00;48.40
72206;DHT22;60111;48.286;7.812;2023-04-24T13:35:38;14.00;47.70
72206;DHT22;60111;48.286;7.812;2023-04-24T13:38:11;14.20;48.30
72206;DHT22;60111;48.286;7.812;2023-04-24T13:40:43;14.30;48.00
72206;DHT22;60111;48.286;7.812;2023-04-24T13:43:16;14.50;48.60
72206;DHT22;60111;48.286;7.812;2023-04-24T13:45:49;14.70;48.20
72206;DHT22;60111;48.286;7.812;2023-04-24T13:48:21;14.60;47.00
72206;DHT22;60111;48.286;7.812;2023-04-24T13:50:54;14.70;47.00
72206;DHT22;60111;48.286;7.812;2023-04-24T13:53:27;14.80;47.30
72206;DHT22;60111;48.286;7.812;2023-04-24T13:55:59;14.90;47.20
72206;DHT22;60111;48.286;7.812;2023-04-24T13:58:32;14.90;47.20
72206;DHT22;60111;48.286;7.812;2023-04-24T14:01:05;14.90;47.20
72206;DHT22;60111;48.286;7.812;2023-04-24T14:03:37;15.10;47.70
72206;DHT22;60111;48.286;7.812;2023-04-24T14:06:10;15.30;46.20
72206;DHT22;60111;48.286;7.812;2023-04-24T14:08:43;15.40;46.20
72206;DHT22;60111;48.286;7.812;2023-04-24T14:11:15;15.40;46.30
72206;DHT22;60111;48.286;7.812;2023-04-24T14:13:48;15.50;45.20
72206;DHT22;60111;48.286;7.812;2023-04-24T14:16:21;15.50;44.60
72206;DHT22;60111;48.286;7.812;2023-04-24T14:18:53;15.40;45.60
72206;DHT22;60111;48.286;7.812;2023-04-24T14:21:27;15.30;45.70
72206;DHT22;60111;48.286;7.812;2023-04-24T14:23:59;15.40;45.90
72206;DHT22;60111;48.286;7.812;2023-04-24T14:26:32;15.50;44.90
72206;DHT22;60111;48.286;7.812;2023-04-24T14:29:05;15.70;45.10
72206;DHT22;60111;48.286;7.812;2023-04-24T14:31:39;15.70;45.00
72206;DHT22;60111;48.286;7.812;2023-04-24T14:34:12;15.70;44.10
72206;DHT22;60111;48.286;7.812;2023-04-24T14:36:47;15.60;45.40
72206;DHT22;60111;48.286;7.812;2023-04-24T14:39:19;15.50;45.50
72206;DHT22;60111;48.286;7.812;2023-04-24T14:41:52;15.40;45.50
72206;DHT22;60111;48.286;7.812;2023-04-24T14:44:25;15.30;45.40
72206;DHT22;60111;48.286;7.812;2023-04-24T14:46:58;15.40;45.00
72206;DHT22;60111;48.286;7.812;2023-04-24T14:49:31;15.30;44.90
72206;DHT22;60111;48.286;7.812;2023-04-24T14:52:04;15.30;45.00
72206;DHT22;60111;48.286;7.812;2023-04-24T14:54:36;15.30;45.60
72206;DHT22;60111;48.286;7.812;2023-04-24T14:57:09;15.20;46.40
72206;DHT22;60111;48.286;7.812;2023-04-24T14:59:42;15.20;46.50
72206;DHT22;60111;48.286;7.812;2023-04-24T15:02:15;15.20;46.90
72206;DHT22;60111;48.286;7.812;2023-04-24T15:04:47;15.10;46.50
72206;DHT22;60111;48.286;7.812;2023-04-24T15:07:20;15.20;46.10
72206;DHT22;60111;48.286;7.812;2023-04-24T15:09:52;15.30;46.40
72206;DHT22;60111;48.286;7.812;2023-04-24T15:12:25;15.40;47.00
72206;DHT22;60111;48.286;7.812;2023-04-24T15:14:58;15.40;46.30
72206;DHT22;60111;48.286;7.812;2023-04-24T15:17:31;15.20;46.40
72206;DHT22;60111;48.286;7.812;2023-04-24T15:20:04;15.10;47.40
72206;DHT22;60111;48.286;7.812;2023-04-24T15:22:37;15.10;47.00
72206;DHT22;60111;48.286;7.812;2023-04-24T15:25:10;15.10;46.80
72206;DHT22;60111;48.286;7.812;2023-04-24T15:27:43;14.90;46.20
72206;DHT22;60111;48.286;7.812;2023-04-24T15:30:17;14.90;46.80
72206;DHT22;60111;48.286;7.812;2023-04-24T15:32:50;15.00;47.90
72206;DHT22;60111;48.286;7.812;2023-04-24T15:35:23;14.90;47.40
72206;DHT22;60111;48.286;7.812;2023-04-24T15:37:55;14.90;47.90
72206;DHT22;60111;48.286;7.812;2023-04-24T15:40:28;15.10;48.20
72206;DHT22;60111;48.286;7.812;2023-04-24T15:43:00;15.10;48.60
72206;DHT22;60111;48.286;7.812;2023-04-24T15:45:33;15.20;48.60
72206;DHT22;60111;48.286;7.812;2023-04-24T15:48:06;15.20;48.30
72206;DHT22;60111;48.286;7.812;2023-04-24T15:50:39;15.10;47.20
72206;DHT22;60111;48.286;7.812;2023-04-24T15:53:11;15.10;47.70
72206;DHT22;60111;48.286;7.812;2023-04-24T15:55:44;15.10;48.50
72206;DHT22;60111;48.286;7.812;2023-04-24T15:58:17;15.10;48.70
72206;DHT22;60111;48.286;7.812;2023-04-24T16:00:50;15.00;48.90
72206;DHT22;60111;48.286;7.812;2023-04-24T16:03:23;14.90;48.60
72206;DHT22;60111;48.286;7.812;2023-04-24T16:06:15;14.80;49.00
72206;DHT22;60111;48.286;7.812;2023-04-24T16:08:48;14.80;47.90